Decoded Metar for LCPH (PAPHOS in CYPRUS) (IATA:PFO) | Meteo·Mobile Aviation Weather
aviador You're here:

LCPH Decoded Metar

PAPHOS in CYPRUS
Report Time2019-02-22 03:30:00
UTC Time2019-02-22 03:46:26
Flight Rules vfr VFR
Wind030° at 08 kt
W.Decomp.*RWY 11: 0.8 kt HW 8 kt LCW
W.Rank030° ranks 2
Current wind is above 030° avg. (5.8)
Visibility9999 m
Phenomena:N/A
Clouds:Few 020 Hf
Expected CloudBase > 1,200 ft AGL from Temp-Dew spread
CeilingNone
Temp09°C (ISA -6)
Dew Point06°C (82% RH)
AAT5.2°C
QNH1018 hPa
Density Alt-728 ft
Elevation26 ft
Report Wrong Elevation
Raw Report
METAR LCPH 220330Z 03008KT 9999 FEW020 09/06 Q1018=

Extra information for LCPH:More info

Metar Taf Metar & Taf Last 4 Metars F.Rules Stats Wind Profile Meteogram Temp Stats Airport Information Weather charts Add Link Nearby VenuesMetar ALERT Operation Metar Decoded Social comments